createdAt,value
2023-04-18T00:00:12.106Z,448.00
2023-04-18T00:01:12.114Z,447.00
2023-04-18T00:02:12.226Z,447.00
2023-04-18T00:03:12.230Z,447.00
2023-04-18T00:04:12.343Z,448.00
2023-04-18T00:05:12.137Z,447.00
2023-04-18T00:06:12.129Z,446.00
2023-04-18T00:07:12.114Z,444.00
2023-04-18T00:08:12.159Z,442.00
2023-04-18T00:09:12.241Z,444.00
2023-04-18T00:10:12.206Z,443.00
2023-04-18T00:11:12.215Z,444.00
2023-04-18T00:12:12.228Z,445.00
2023-04-18T00:13:12.266Z,445.00
2023-04-18T00:14:12.525Z,445.00
2023-04-18T00:15:12.390Z,443.00
2023-04-18T00:16:12.477Z,441.00
2023-04-18T00:17:12.535Z,442.00
2023-04-18T00:18:12.537Z,443.00
2023-04-18T00:19:12.614Z,445.00
2023-04-18T00:20:12.800Z,445.00
2023-04-18T00:21:12.722Z,445.00
2023-04-18T00:22:12.767Z,443.00
2023-04-18T00:23:13.412Z,445.00
2023-04-18T00:24:13.141Z,446.00
2023-04-18T00:25:12.958Z,445.00
2023-04-18T00:26:12.997Z,442.00
2023-04-18T00:27:13.072Z,441.00
2023-04-18T00:28:13.128Z,442.00
2023-04-18T00:29:13.171Z,444.00
2023-04-18T00:30:13.237Z,445.00
2023-04-18T00:31:13.350Z,444.00
2023-04-18T00:32:13.351Z,445.00
2023-04-18T00:33:13.352Z,443.00
2023-04-18T00:34:13.517Z,444.00
2023-04-18T00:35:13.376Z,443.00
2023-04-18T00:36:13.372Z,441.00
2023-04-18T00:37:13.383Z,441.00
2023-04-18T00:38:13.403Z,439.00
2023-04-18T00:39:13.373Z,439.00
2023-04-18T00:40:13.375Z,443.00
2023-04-18T00:41:13.396Z,443.00
2023-04-18T00:42:13.455Z,444.00
2023-04-18T00:43:13.486Z,444.00
2023-04-18T00:44:13.874Z,443.00
2023-04-18T00:45:13.618Z,445.00
2023-04-18T00:46:13.683Z,447.00
2023-04-18T00:47:13.644Z,446.00
2023-04-18T00:48:13.642Z,445.00
2023-04-18T00:49:13.692Z,444.00
2023-04-18T00:50:13.766Z,446.00
2023-04-18T00:51:13.811Z,444.00
2023-04-18T00:52:13.858Z,444.00
2023-04-18T00:53:13.927Z,443.00
2023-04-18T00:54:14.169Z,441.00
2023-04-18T00:55:13.997Z,440.00
2023-04-18T00:56:14.023Z,441.00
2023-04-18T00:57:14.023Z,440.00
2023-04-18T00:58:14.035Z,438.00
2023-04-18T00:59:14.038Z,443.00
2023-04-18T01:00:14.055Z,445.00
2023-04-18T01:01:14.146Z,443.00
2023-04-18T01:02:14.091Z,442.00
2023-04-18T01:03:14.174Z,444.00
2023-04-18T01:04:14.579Z,442.00
2023-04-18T01:05:14.144Z,442.00
2023-04-18T01:06:14.173Z,441.00
2023-04-18T01:07:14.193Z,440.00
2023-04-18T01:08:14.204Z,439.00
2023-04-18T01:09:14.259Z,441.00
2023-04-18T01:10:14.318Z,441.00
2023-04-18T01:11:14.362Z,441.00
2023-04-18T01:12:14.418Z,441.00
2023-04-18T01:13:14.476Z,443.00
2023-04-18T01:14:14.688Z,441.00
2023-04-18T01:15:14.577Z,440.00
2023-04-18T01:16:14.668Z,440.00
2023-04-18T01:17:14.690Z,440.00
2023-04-18T01:18:14.752Z,436.00
2023-04-18T01:19:14.776Z,434.00
2023-04-18T01:20:14.801Z,436.00
2023-04-18T01:21:14.803Z,438.00
2023-04-18T01:22:14.852Z,438.00
2023-04-18T01:23:14.884Z,437.00
2023-04-18T01:24:15.166Z,436.00
2023-04-18T01:25:15.042Z,432.00
2023-04-18T01:26:15.074Z,434.00
2023-04-18T01:27:15.148Z,434.00
2023-04-18T01:28:15.278Z,433.00
2023-04-18T01:29:15.205Z,432.00
2023-04-18T01:30:15.225Z,432.00
2023-04-18T01:31:15.362Z,431.00
2023-04-18T01:32:15.282Z,432.00
2023-04-18T01:33:15.301Z,435.00
2023-04-18T01:34:15.534Z,434.00
2023-04-18T01:35:15.296Z,434.00
2023-04-18T01:36:15.301Z,436.00
2023-04-18T01:37:15.324Z,438.00
2023-04-18T01:38:15.303Z,437.00
2023-04-18T01:39:15.371Z,436.00
2023-04-18T01:40:15.411Z,436.00
2023-04-18T01:41:15.465Z,433.00
2023-04-18T01:42:15.530Z,434.00
2023-04-18T01:43:15.541Z,436.00
2023-04-18T01:44:15.870Z,437.00
2023-04-18T01:45:15.604Z,438.00
2023-04-18T01:46:15.676Z,439.00
2023-04-18T01:47:15.694Z,436.00
2023-04-18T01:48:15.768Z,438.00
2023-04-18T01:49:15.828Z,439.00
2023-04-18T01:50:15.872Z,438.00
2023-04-18T01:51:15.935Z,436.00
2023-04-18T01:52:15.926Z,434.00
2023-04-18T01:53:15.950Z,433.00
2023-04-18T01:54:16.244Z,433.00
2023-04-18T01:55:15.951Z,432.00
2023-04-18T01:56:15.966Z,435.00
2023-04-18T01:57:15.977Z,436.00
2023-04-18T01:58:15.989Z,435.00
2023-04-18T01:59:15.995Z,437.00
2023-04-18T02:00:16.015Z,437.00
2023-04-18T02:01:16.057Z,436.00
2023-04-18T02:02:16.050Z,437.00
2023-04-18T02:03:16.112Z,437.00
2023-04-18T02:04:16.283Z,437.00
2023-04-18T02:05:16.043Z,439.00
2023-04-18T02:06:16.055Z,441.00
2023-04-18T02:07:16.058Z,443.00
2023-04-18T02:08:16.059Z,442.00
2023-04-18T02:09:16.084Z,442.00
2023-04-18T02:10:16.070Z,442.00
2023-04-18T02:11:16.084Z,443.00
2023-04-18T02:12:16.153Z,444.00
2023-04-18T02:13:16.236Z,443.00
2023-04-18T02:14:16.316Z,443.00
2023-04-18T02:15:16.303Z,440.00
2023-04-18T02:16:16.403Z,442.00
2023-04-18T02:17:16.334Z,443.00
2023-04-18T02:18:16.352Z,440.00
2023-04-18T02:19:16.367Z,440.00
2023-04-18T02:20:16.353Z,439.00
2023-04-18T02:21:16.376Z,437.00
2023-04-18T02:22:16.367Z,434.00
2023-04-18T02:23:16.396Z,433.00
2023-04-18T02:24:16.403Z,431.00
2023-04-18T02:25:16.420Z,430.00
2023-04-18T02:26:16.404Z,431.00
2023-04-18T02:27:16.423Z,430.00
2023-04-18T02:28:16.432Z,433.00
2023-04-18T02:29:16.459Z,435.00
2023-04-18T02:30:16.490Z,435.00
2023-04-18T02:31:16.502Z,437.00
2023-04-18T02:32:16.478Z,435.00
2023-04-18T02:33:16.503Z,432.00
2023-04-18T02:34:16.512Z,431.00
2023-04-18T02:35:16.539Z,431.00
2023-04-18T02:36:16.579Z,432.00
2023-04-18T02:37:16.646Z,434.00
2023-04-18T02:38:16.682Z,433.00
2023-04-18T02:39:16.739Z,434.00
2023-04-18T02:40:16.814Z,434.00
2023-04-18T02:41:16.853Z,433.00
2023-04-18T02:42:16.918Z,433.00
2023-04-18T02:43:16.984Z,433.00
2023-04-18T02:44:17.067Z,433.00
2023-04-18T02:45:17.078Z,433.00
2023-04-18T02:46:17.156Z,433.00
2023-04-18T02:47:17.199Z,435.00
2023-04-18T02:48:17.332Z,438.00
2023-04-18T02:49:17.354Z,439.00
2023-04-18T02:50:17.393Z,440.00
2023-04-18T02:51:17.457Z,437.00
2023-04-18T02:52:17.509Z,437.00
2023-04-18T02:53:17.579Z,436.00
2023-04-18T02:54:17.646Z,437.00
2023-04-18T02:55:17.697Z,437.00
2023-04-18T02:56:17.765Z,435.00
2023-04-18T02:57:17.822Z,435.00
2023-04-18T02:58:17.871Z,435.00
2023-04-18T02:59:17.915Z,436.00
2023-04-18T03:00:17.946Z,437.00
2023-04-18T03:01:18.060Z,435.00
2023-04-18T03:02:18.068Z,434.00
2023-04-18T03:03:18.144Z,434.00
2023-04-18T03:04:18.211Z,434.00
2023-04-18T03:05:18.237Z,435.00
2023-04-18T03:06:18.292Z,437.00
2023-04-18T03:07:18.361Z,439.00
2023-04-18T03:08:18.419Z,437.00
2023-04-18T03:09:18.460Z,436.00
2023-04-18T03:10:18.534Z,435.00
2023-04-18T03:11:18.581Z,437.00
2023-04-18T03:12:18.642Z,435.00
2023-04-18T03:13:18.717Z,435.00
2023-04-18T03:14:18.767Z,438.00
2023-04-18T03:15:18.822Z,439.00
2023-04-18T03:16:18.980Z,439.00
2023-04-18T03:17:18.943Z,439.00
2023-04-18T03:18:18.997Z,441.00
2023-04-18T03:19:19.046Z,440.00
2023-04-18T03:20:19.126Z,442.00
2023-04-18T03:21:19.197Z,442.00
2023-04-18T03:22:19.206Z,441.00
2023-04-18T03:23:19.279Z,441.00
2023-04-18T03:24:19.325Z,438.00
2023-04-18T03:25:19.384Z,439.00
2023-04-18T03:26:19.447Z,438.00
2023-04-18T03:27:19.490Z,435.00
2023-04-18T03:28:19.571Z,436.00
2023-04-18T03:29:19.596Z,438.00
2023-04-18T03:30:19.676Z,437.00
2023-04-18T03:31:19.751Z,438.00
2023-04-18T03:32:19.773Z,437.00
2023-04-18T03:33:19.850Z,438.00
2023-04-18T03:34:19.879Z,439.00
2023-04-18T03:35:19.951Z,439.00
2023-04-18T03:36:20.006Z,438.00
2023-04-18T03:37:20.057Z,437.00
2023-04-18T03:38:20.144Z,436.00
2023-04-18T03:39:20.104Z,436.00
2023-04-18T03:40:20.126Z,437.00
2023-04-18T03:41:20.129Z,435.00
2023-04-18T03:42:20.179Z,434.00
2023-04-18T03:43:20.213Z,436.00
2023-04-18T03:44:20.264Z,437.00
2023-04-18T03:45:20.347Z,437.00
2023-04-18T03:46:20.418Z,435.00
2023-04-18T03:47:20.495Z,437.00
2023-04-18T03:48:20.524Z,437.00
2023-04-18T03:49:20.579Z,439.00
2023-04-18T03:50:20.648Z,439.00
2023-04-18T03:51:20.706Z,436.00
2023-04-18T03:52:20.764Z,436.00
2023-04-18T03:53:20.819Z,435.00
2023-04-18T03:54:20.873Z,432.00
2023-04-18T03:55:20.937Z,432.00
2023-04-18T03:56:20.995Z,432.00
2023-04-18T03:57:21.074Z,431.00
2023-04-18T03:58:23.155Z,429.00
2023-04-18T03:59:21.187Z,430.00
2023-04-18T04:00:21.242Z,431.00
2023-04-18T04:01:21.319Z,429.00
2023-04-18T04:02:21.566Z,429.00
2023-04-18T04:03:21.552Z,429.00
2023-04-18T04:04:21.504Z,429.00
2023-04-18T04:05:21.445Z,428.00
2023-04-18T04:06:21.460Z,426.00
2023-04-18T04:07:21.481Z,425.00
2023-04-18T04:08:21.469Z,425.00
2023-04-18T04:09:21.530Z,428.00
2023-04-18T04:10:21.632Z,428.00
2023-04-18T04:11:21.649Z,427.00
2023-04-18T04:12:21.697Z,427.00
2023-04-18T04:13:21.749Z,428.00
2023-04-18T04:14:21.817Z,429.00
2023-04-18T04:15:21.859Z,429.00
2023-04-18T04:16:21.974Z,428.00
2023-04-18T04:17:22.081Z,431.00
2023-04-18T04:18:22.056Z,432.00
2023-04-18T04:19:22.119Z,431.00
2023-04-18T04:20:22.175Z,429.00
2023-04-18T04:21:22.178Z,428.00
2023-04-18T04:22:22.191Z,427.00
2023-04-18T04:23:22.213Z,428.00
2023-04-18T04:24:22.212Z,432.00
2023-04-18T04:25:22.244Z,434.00
2023-04-18T04:26:22.283Z,436.00
2023-04-18T04:27:22.331Z,438.00
2023-04-18T04:28:22.338Z,437.00
2023-04-18T04:29:22.361Z,437.00
2023-04-18T04:30:22.375Z,436.00
2023-04-18T04:31:22.446Z,436.00
2023-04-18T04:32:22.406Z,438.00
2023-04-18T04:33:22.390Z,437.00
2023-04-18T04:34:22.392Z,435.00
2023-04-18T04:35:22.419Z,433.00
2023-04-18T04:36:22.408Z,430.00
2023-04-18T04:37:22.446Z,432.00
2023-04-18T04:38:22.439Z,434.00
2023-04-18T04:39:22.494Z,433.00
2023-04-18T04:40:22.546Z,433.00
2023-04-18T04:41:22.616Z,433.00
2023-04-18T04:42:22.646Z,433.00
2023-04-18T04:43:22.696Z,433.00
2023-04-18T04:44:22.783Z,434.00
2023-04-18T04:45:22.763Z,436.00
2023-04-18T04:46:22.888Z,437.00
2023-04-18T04:47:22.829Z,438.00
2023-04-18T04:48:22.826Z,439.00
2023-04-18T04:49:22.827Z,439.00
2023-04-18T04:50:22.837Z,439.00
2023-04-18T04:51:22.844Z,436.00
2023-04-18T04:52:22.894Z,436.00
2023-04-18T04:53:22.956Z,437.00
2023-04-18T04:54:23.038Z,436.00
2023-04-18T04:55:23.082Z,434.00
2023-04-18T04:56:23.160Z,436.00
2023-04-18T04:57:23.221Z,437.00
2023-04-18T04:58:23.224Z,436.00
2023-04-18T04:59:23.256Z,436.00
2023-04-18T05:00:23.282Z,435.00
2023-04-18T05:01:23.332Z,436.00
2023-04-18T05:02:23.461Z,435.00
2023-04-18T05:03:23.521Z,434.00
2023-04-18T05:04:23.468Z,435.00
2023-04-18T05:05:23.470Z,435.00
2023-04-18T05:06:23.531Z,437.00
2023-04-18T05:07:23.595Z,439.00
2023-04-18T05:08:23.654Z,441.00
2023-04-18T05:09:23.795Z,443.00
2023-04-18T05:10:23.763Z,442.00
2023-04-18T05:11:23.818Z,442.00
2023-04-18T05:12:23.879Z,443.00
2023-04-18T05:13:23.989Z,444.00
2023-04-18T05:14:23.973Z,445.00
2023-04-18T05:15:23.966Z,445.00
2023-04-18T05:16:24.065Z,444.00
2023-04-18T05:17:23.993Z,444.00
2023-04-18T05:18:24.030Z,444.00
2023-04-18T05:19:24.105Z,444.00
2023-04-18T05:20:24.135Z,443.00
2023-04-18T05:21:24.197Z,442.00
2023-04-18T05:22:24.242Z,444.00
2023-04-18T05:23:24.303Z,442.00
2023-04-18T05:24:24.378Z,441.00
2023-04-18T05:25:24.476Z,441.00
2023-04-18T05:26:24.512Z,443.00
2023-04-18T05:27:24.562Z,447.00
2023-04-18T05:28:24.630Z,451.00
2023-04-18T05:29:24.706Z,468.00
2023-04-18T05:30:24.743Z,483.00
2023-04-18T05:31:24.866Z,501.00
2023-04-18T05:32:24.903Z,501.00
2023-04-18T05:33:24.924Z,575.00
2023-04-18T05:34:24.928Z,579.00
2023-04-18T05:35:24.910Z,687.00
2023-04-18T05:36:24.963Z,714.00
2023-04-18T05:37:25.037Z,734.00
2023-04-18T05:38:25.097Z,757.00
2023-04-18T05:39:25.089Z,786.00
2023-04-18T05:40:25.139Z,814.00
2023-04-18T05:41:25.175Z,899.00
2023-04-18T05:42:25.190Z,917.00
2023-04-18T05:43:25.365Z,908.00
2023-04-18T05:44:25.322Z,908.00
2023-04-18T05:45:25.278Z,909.00
2023-04-18T05:46:25.372Z,910.00
2023-04-18T05:47:25.376Z,910.00
2023-04-18T05:48:25.433Z,912.00
2023-04-18T05:49:25.443Z,922.00
2023-04-18T05:50:25.426Z,957.00
2023-04-18T05:51:25.433Z,968.00
2023-04-18T05:52:25.444Z,975.00
2023-04-18T05:53:25.451Z,976.00
2023-04-18T05:54:25.482Z,987.00
2023-04-18T05:55:25.867Z,995.00
2023-04-18T05:56:25.472Z,1005.00
2023-04-18T05:57:25.447Z,1042.00
2023-04-18T05:58:25.490Z,1041.00
2023-04-18T05:59:25.539Z,1040.00
2023-04-18T06:00:25.736Z,1039.00
2023-04-18T06:01:25.609Z,1041.00
2023-04-18T06:02:25.872Z,1043.00
2023-04-18T06:03:26.074Z,942.00
2023-04-18T06:04:25.853Z,896.00
2023-04-18T06:05:25.884Z,876.00
2023-04-18T06:06:25.815Z,876.00
2023-04-18T06:07:25.858Z,887.00
2023-04-18T06:08:25.884Z,894.00
2023-04-18T06:09:25.881Z,895.00
2023-04-18T06:10:25.928Z,905.00
2023-04-18T06:11:25.984Z,901.00
2023-04-18T06:12:26.019Z,907.00
2023-04-18T06:13:26.088Z,912.00
2023-04-18T06:14:26.159Z,903.00
2023-04-18T06:15:26.190Z,891.00
2023-04-18T06:16:26.330Z,886.00
2023-04-18T06:17:26.193Z,877.00
2023-04-18T06:18:26.172Z,871.00
2023-04-18T06:19:26.189Z,868.00
2023-04-18T06:20:26.179Z,888.00
2023-04-18T06:21:26.220Z,915.00
2023-04-18T06:22:26.230Z,914.00
2023-04-18T06:23:26.435Z,903.00
2023-04-18T06:24:26.236Z,897.00
2023-04-18T06:25:26.259Z,884.00
2023-04-18T06:26:26.242Z,889.00
2023-04-18T06:27:31.619Z,900.00
2023-04-18T06:28:27.251Z,900.00
2023-04-18T06:29:26.240Z,891.00
2023-04-18T06:30:26.237Z,868.00
2023-04-18T06:31:26.238Z,850.00
2023-04-18T06:32:26.305Z,846.00
2023-04-18T06:33:26.377Z,843.00
2023-04-18T06:34:26.200Z,843.00
2023-04-18T06:35:26.700Z,880.00
2023-04-18T06:36:26.179Z,911.00
2023-04-18T06:37:26.176Z,913.00
2023-04-18T06:38:26.168Z,915.00
2023-04-18T06:39:26.183Z,922.00
2023-04-18T06:40:26.891Z,939.00
2023-04-18T06:41:26.273Z,939.00
2023-04-18T06:42:26.271Z,953.00
2023-04-18T06:43:26.298Z,967.00
2023-04-18T06:44:26.370Z,1026.00
2023-04-18T06:45:26.472Z,1042.00
2023-04-18T06:46:26.477Z,1055.00
2023-04-18T06:47:26.410Z,1055.00
2023-04-18T06:48:27.304Z,1072.00
2023-04-18T06:49:26.803Z,1057.00
2023-04-18T06:50:26.482Z,1049.00
2023-04-18T06:51:26.514Z,1035.00
2023-04-18T06:52:26.510Z,1017.00
2023-04-18T06:53:26.564Z,1003.00
2023-04-18T06:54:26.625Z,988.00
2023-04-18T06:55:26.689Z,985.00
2023-04-18T06:56:26.722Z,992.00
2023-04-18T06:57:26.737Z,988.00
2023-04-18T06:58:26.893Z,980.00
2023-04-18T06:59:26.794Z,971.00
2023-04-18T07:00:26.815Z,968.00
2023-04-18T07:01:26.928Z,965.00
2023-04-18T07:02:26.988Z,960.00
2023-04-18T07:03:27.530Z,1001.00
2023-04-18T07:04:27.081Z,1007.00
2023-04-18T07:05:27.085Z,1002.00
2023-04-18T07:06:27.135Z,984.00
2023-04-18T07:07:27.214Z,988.00
2023-04-18T07:08:27.231Z,977.00
2023-04-18T07:09:27.261Z,968.00
2023-04-18T07:10:27.305Z,947.00
2023-04-18T07:11:27.334Z,953.00
2023-04-18T07:12:27.358Z,993.00
2023-04-18T07:13:27.393Z,969.00
2023-04-18T07:14:27.484Z,965.00
2023-04-18T07:15:27.533Z,955.00
2023-04-18T07:16:27.596Z,945.00
2023-04-18T07:17:27.693Z,946.00
2023-04-18T07:18:37.605Z,947.00
2023-04-18T07:19:28.687Z,942.00
2023-04-18T07:20:27.713Z,935.00
2023-04-18T07:21:27.652Z,926.00
2023-04-18T07:22:27.698Z,969.00
2023-04-18T07:23:27.656Z,977.00
2023-04-18T07:24:27.653Z,970.00
2023-04-18T07:25:27.662Z,966.00
2023-04-18T07:26:27.660Z,962.00
2023-04-18T07:27:27.617Z,954.00
2023-04-18T07:28:27.650Z,943.00
2023-04-18T07:29:27.947Z,969.00
2023-04-18T07:30:27.950Z,939.00
2023-04-18T07:31:27.824Z,859.00
2023-04-18T07:32:27.816Z,880.00
2023-04-18T07:33:27.795Z,871.00
2023-04-18T07:34:27.920Z,786.00
2023-04-18T07:35:27.921Z,766.00
2023-04-18T07:36:27.869Z,759.00
2023-04-18T07:37:27.839Z,752.00
2023-04-18T07:38:27.871Z,731.00
2023-04-18T07:39:27.908Z,712.00
2023-04-18T07:40:28.416Z,687.00
2023-04-18T07:41:28.011Z,647.00
2023-04-18T07:42:28.062Z,648.00
2023-04-18T07:43:28.097Z,637.00
2023-04-18T07:44:28.423Z,635.00
2023-04-18T07:45:28.137Z,630.00
2023-04-18T07:46:28.235Z,624.00
2023-04-18T07:47:29.613Z,622.00
2023-04-18T07:48:28.254Z,623.00
2023-04-18T07:49:28.420Z,627.00
2023-04-18T07:50:28.272Z,629.00
2023-04-18T07:51:28.274Z,624.00
2023-04-18T07:52:28.337Z,619.00
2023-04-18T07:53:28.278Z,612.00
2023-04-18T07:54:28.257Z,609.00
2023-04-18T07:55:28.347Z,602.00
2023-04-18T07:56:28.322Z,588.00
2023-04-18T07:57:28.354Z,582.00
2023-04-18T07:58:28.473Z,578.00
2023-04-18T07:59:28.511Z,571.00
2023-04-18T08:00:28.503Z,568.00
2023-04-18T08:01:28.530Z,570.00
2023-04-18T08:02:28.734Z,565.00
2023-04-18T08:03:28.771Z,565.00
2023-04-18T08:04:30.114Z,563.00
2023-04-18T08:05:28.619Z,559.00
2023-04-18T08:06:28.576Z,555.00
2023-04-18T08:07:28.562Z,550.00
2023-04-18T08:08:28.567Z,542.00
2023-04-18T08:09:28.616Z,538.00
2023-04-18T08:10:28.555Z,536.00
2023-04-18T08:11:28.577Z,536.00
2023-04-18T08:12:28.624Z,532.00
2023-04-18T08:13:28.619Z,526.00
2023-04-18T08:14:28.952Z,523.00
2023-04-18T08:15:28.645Z,523.00
2023-04-18T08:16:28.722Z,520.00
2023-04-18T08:17:28.719Z,519.00
2023-04-18T08:18:28.705Z,520.00
2023-04-18T08:19:28.932Z,522.00
2023-04-18T08:20:28.852Z,517.00
2023-04-18T08:21:28.935Z,518.00
2023-04-18T08:22:28.882Z,745.00
2023-04-18T08:23:28.925Z,767.00
2023-04-18T08:24:28.951Z,777.00
2023-04-18T08:25:28.951Z,787.00
2023-04-18T08:26:28.973Z,817.00
2023-04-18T08:27:28.988Z,832.00
2023-04-18T08:28:29.032Z,860.00
2023-04-18T08:29:29.454Z,863.00
2023-04-18T08:30:29.122Z,867.00
2023-04-18T08:31:29.228Z,875.00
2023-04-18T08:32:29.268Z,878.00
2023-04-18T08:33:29.260Z,891.00
2023-04-18T08:34:29.337Z,901.00
2023-04-18T08:35:29.373Z,908.00
2023-04-18T08:36:29.438Z,929.00
2023-04-18T08:37:29.434Z,941.00
2023-04-18T08:38:29.476Z,918.00
2023-04-18T08:39:30.450Z,950.00
2023-04-18T08:40:32.639Z,956.00
2023-04-18T08:41:29.491Z,948.00
2023-04-18T08:42:29.520Z,906.00
2023-04-18T08:43:29.497Z,891.00
2023-04-18T08:44:29.459Z,871.00
2023-04-18T08:45:29.505Z,839.00
2023-04-18T08:46:29.470Z,813.00
2023-04-18T08:47:29.455Z,800.00
2023-04-18T08:48:29.486Z,817.00
2023-04-18T08:49:29.431Z,818.00
2023-04-18T08:50:29.473Z,758.00
2023-04-18T08:51:29.413Z,751.00
2023-04-18T08:52:29.426Z,746.00
2023-04-18T08:53:29.419Z,747.00
2023-04-18T08:54:29.408Z,748.00
2023-04-18T08:55:29.393Z,746.00
2023-04-18T08:56:29.468Z,777.00
2023-04-18T08:57:29.395Z,773.00
2023-04-18T08:58:29.360Z,769.00
2023-04-18T08:59:29.369Z,769.00
2023-04-18T09:00:29.356Z,765.00
2023-04-18T09:01:29.406Z,762.00
2023-04-18T09:02:29.397Z,758.00
2023-04-18T09:03:29.348Z,756.00
2023-04-18T09:04:29.368Z,758.00
2023-04-18T09:05:29.323Z,763.00
2023-04-18T09:06:29.446Z,768.00
2023-04-18T09:07:29.290Z,779.00
2023-04-18T09:08:29.287Z,794.00
2023-04-18T09:09:29.359Z,797.00
2023-04-18T09:10:29.263Z,791.00
2023-04-18T09:11:29.715Z,788.00
2023-04-18T09:12:29.380Z,865.00
2023-04-18T09:13:29.254Z,789.00
2023-04-18T09:14:29.264Z,785.00
2023-04-18T09:15:29.323Z,781.00
2023-04-18T09:16:29.474Z,776.00
2023-04-18T09:17:29.299Z,787.00
2023-04-18T09:18:29.231Z,793.00
2023-04-18T09:19:29.232Z,809.00
2023-04-18T09:20:29.204Z,807.00
2023-04-18T09:21:29.438Z,810.00
2023-04-18T09:22:29.203Z,821.00
2023-04-18T09:23:29.198Z,842.00
2023-04-18T09:24:29.196Z,856.00
2023-04-18T09:25:29.559Z,858.00
2023-04-18T09:26:29.170Z,861.00
2023-04-18T09:27:29.177Z,849.00
2023-04-18T09:28:29.154Z,846.00
2023-04-18T09:29:29.184Z,852.00
2023-04-18T09:30:29.474Z,853.00
2023-04-18T09:31:29.491Z,857.00
2023-04-18T09:32:29.390Z,857.00
2023-04-18T09:33:29.190Z,854.00
2023-04-18T09:34:29.134Z,850.00
2023-04-18T09:35:29.132Z,846.00
2023-04-18T09:36:29.486Z,842.00
2023-04-18T09:37:29.089Z,813.00
2023-04-18T09:38:29.108Z,735.00
2023-04-18T09:39:29.108Z,735.00
2023-04-18T09:40:29.092Z,733.00
2023-04-18T09:41:29.448Z,728.00
2023-04-18T09:42:29.211Z,718.00
2023-04-18T09:43:29.054Z,712.00
2023-04-18T09:44:29.070Z,710.00
2023-04-18T09:45:29.026Z,707.00
2023-04-18T09:46:29.065Z,700.00
2023-04-18T09:47:29.038Z,694.00
2023-04-18T09:48:29.014Z,619.00
2023-04-18T09:49:29.029Z,619.00
2023-04-18T09:50:29.028Z,618.00
2023-04-18T09:51:29.453Z,605.00
2023-04-18T09:52:29.032Z,598.00
2023-04-18T09:53:28.970Z,599.00
2023-04-18T09:54:28.962Z,598.00
2023-04-18T09:55:28.981Z,600.00
2023-04-18T09:56:28.992Z,598.00
2023-04-18T09:57:29.009Z,597.00
2023-04-18T09:58:29.005Z,592.00
2023-04-18T09:59:29.058Z,587.00
2023-04-18T10:00:29.522Z,584.00
2023-04-18T10:01:29.110Z,580.00
2023-04-18T10:02:29.161Z,577.00
2023-04-18T10:03:29.142Z,575.00
2023-04-18T10:04:29.191Z,565.00
2023-04-18T10:05:29.186Z,551.00
2023-04-18T10:06:29.120Z,549.00
2023-04-18T10:07:29.137Z,544.00
2023-04-18T10:08:29.178Z,540.00
2023-04-18T10:09:29.217Z,538.00
2023-04-18T10:10:29.222Z,535.00
2023-04-18T10:11:29.270Z,529.00
2023-04-18T10:12:29.308Z,524.00
2023-04-18T10:13:29.333Z,516.00
2023-04-18T10:14:29.360Z,510.00
2023-04-18T10:15:29.350Z,507.00
2023-04-18T10:16:29.475Z,508.00
2023-04-18T10:17:29.893Z,510.00
2023-04-18T10:18:29.367Z,507.00
2023-04-18T10:19:29.349Z,505.00
2023-04-18T10:20:29.333Z,506.00
2023-04-18T10:21:29.477Z,507.00
2023-04-18T10:22:29.321Z,509.00
2023-04-18T10:23:29.330Z,529.00
2023-04-18T10:24:29.344Z,570.00
2023-04-18T10:25:29.334Z,698.00
2023-04-18T10:26:29.396Z,698.00
2023-04-18T10:27:29.420Z,734.00
2023-04-18T10:28:29.435Z,744.00
2023-04-18T10:29:29.466Z,813.00
2023-04-18T10:30:29.517Z,827.00
2023-04-18T10:31:29.631Z,838.00
2023-04-18T10:32:29.635Z,808.00
2023-04-18T10:33:31.874Z,801.00
2023-04-18T10:34:29.646Z,846.00
2023-04-18T10:35:29.593Z,854.00
2023-04-18T10:36:29.626Z,873.00
2023-04-18T10:37:29.595Z,875.00
2023-04-18T10:38:29.613Z,870.00
2023-04-18T10:39:29.578Z,858.00
2023-04-18T10:40:29.574Z,925.00
2023-04-18T10:41:29.570Z,907.00
2023-04-18T10:42:29.574Z,913.00
2023-04-18T10:43:29.563Z,917.00
2023-04-18T10:44:29.553Z,928.00
2023-04-18T10:45:29.528Z,932.00
2023-04-18T10:46:32.525Z,928.00
2023-04-18T10:47:29.590Z,942.00
2023-04-18T10:48:29.639Z,951.00
2023-04-18T10:49:32.059Z,971.00
2023-04-18T10:50:29.492Z,1011.00
2023-04-18T10:51:29.496Z,1046.00
2023-04-18T10:52:29.511Z,1047.00
2023-04-18T10:53:29.484Z,1060.00
2023-04-18T10:54:29.484Z,1065.00
2023-04-18T10:55:29.463Z,1065.00
2023-04-18T10:56:29.492Z,1064.00
2023-04-18T10:57:29.468Z,1066.00
2023-04-18T10:58:29.459Z,1074.00
2023-04-18T10:59:29.443Z,1081.00
2023-04-18T11:00:29.454Z,1083.00
2023-04-18T11:01:31.972Z,1096.00
2023-04-18T11:02:29.438Z,1097.00
2023-04-18T11:03:29.550Z,1099.00
2023-04-18T11:04:29.487Z,1105.00
2023-04-18T11:05:29.403Z,1095.00
2023-04-18T11:06:29.423Z,1072.00
2023-04-18T11:07:30.093Z,1059.00
2023-04-18T11:08:29.381Z,1036.00
2023-04-18T11:09:29.366Z,961.00
2023-04-18T11:10:29.466Z,959.00
2023-04-18T11:11:29.367Z,939.00
2023-04-18T11:12:29.493Z,940.00
2023-04-18T11:13:29.349Z,927.00
2023-04-18T11:14:29.397Z,1044.00
2023-04-18T11:15:31.030Z,1027.00
2023-04-18T11:16:29.542Z,912.00
2023-04-18T11:17:29.541Z,942.00
2023-04-18T11:18:29.326Z,941.00
2023-04-18T11:19:29.319Z,909.00
2023-04-18T11:20:29.347Z,922.00
2023-04-18T11:21:30.698Z,925.00
2023-04-18T11:22:29.523Z,922.00
2023-04-18T11:23:29.277Z,915.00
2023-04-18T11:24:29.288Z,907.00
2023-04-18T11:25:29.296Z,898.00
2023-04-18T11:26:29.279Z,889.00
2023-04-18T11:27:29.261Z,880.00
2023-04-18T11:28:29.245Z,870.00
2023-04-18T11:29:29.230Z,861.00
2023-04-18T11:30:29.224Z,854.00
2023-04-18T11:31:29.264Z,849.00
2023-04-18T11:32:29.465Z,844.00
2023-04-18T11:33:29.340Z,843.00
2023-04-18T11:34:29.308Z,836.00
2023-04-18T11:35:29.344Z,829.00
2023-04-18T11:36:29.485Z,823.00
2023-04-18T11:37:29.416Z,817.00
2023-04-18T11:38:29.453Z,810.00
2023-04-18T11:39:29.517Z,804.00
2023-04-18T11:40:29.516Z,801.00
2023-04-18T11:41:29.560Z,797.00
2023-04-18T11:42:29.611Z,792.00
2023-04-18T11:43:29.639Z,787.00
2023-04-18T11:44:29.650Z,782.00
2023-04-18T11:45:29.713Z,777.00
2023-04-18T11:46:29.914Z,773.00
2023-04-18T11:47:29.826Z,770.00
2023-04-18T11:48:29.844Z,768.00
2023-04-18T11:49:29.862Z,764.00
2023-04-18T11:50:29.904Z,761.00
2023-04-18T11:51:29.969Z,754.00
2023-04-18T11:52:29.970Z,747.00
2023-04-18T11:53:30.006Z,740.00
2023-04-18T11:54:30.033Z,739.00
2023-04-18T11:55:30.096Z,736.00
2023-04-18T11:56:30.117Z,731.00
2023-04-18T11:57:30.167Z,726.00
2023-04-18T11:58:30.178Z,718.00
2023-04-18T11:59:30.222Z,712.00
2023-04-18T12:00:30.250Z,708.00
2023-04-18T12:01:30.292Z,707.00
2023-04-18T12:02:30.444Z,704.00
2023-04-18T12:03:30.617Z,701.00
2023-04-18T12:04:30.564Z,698.00
2023-04-18T12:05:30.805Z,694.00
2023-04-18T12:06:30.592Z,689.00
2023-04-18T12:07:30.562Z,683.00
2023-04-18T12:08:30.627Z,679.00
2023-04-18T12:09:30.670Z,675.00
2023-04-18T12:10:30.725Z,670.00
2023-04-18T12:11:30.742Z,668.00
2023-04-18T12:12:30.764Z,668.00
2023-04-18T12:13:30.842Z,667.00
2023-04-18T12:14:30.868Z,663.00
2023-04-18T12:15:30.921Z,662.00
2023-04-18T12:16:31.012Z,658.00
2023-04-18T12:17:30.998Z,654.00
2023-04-18T12:18:31.017Z,650.00
2023-04-18T12:19:31.060Z,648.00
2023-04-18T12:20:31.124Z,645.00
2023-04-18T12:21:31.177Z,642.00
2023-04-18T12:22:31.529Z,641.00
2023-04-18T12:23:31.283Z,637.00
2023-04-18T12:24:31.364Z,635.00
2023-04-18T12:25:31.407Z,632.00
2023-04-18T12:26:31.456Z,625.00
2023-04-18T12:27:31.522Z,621.00